Flight Track Log - Related Links

Times and Time Zones

All times are in EDT time to prevent confusion due to time zone crossing. See the DAL2294 flight status page for this flight to view local times or setup timezone preferences in your user account.

Time Position Orientation Groundspeed Altitude Reporting Facility
EDT Latitude Longitude Course Direction KTS MPH feet Rate Location/Type
Wed 07:13:45 AM 30.3767 -89.0025 58° Northeast 210 242 3,200  Level Houston Center
Wed 07:14:46 AM 30.4114 -88.9458 55° Northeast 243 280 5,900 2,975 Climbing Houston Center
Wed 07:15:00 AM 30.7168 -88.9000 12° North  Level FlightAware Approximate
Wed 07:15:46 AM 30.4753 -88.9000 32° Northeast 266 306 9,200  Level Houston Center
Wed 07:16:00 AM 30.8286 -88.8640 20° North  Level FlightAware Approximate
Wed 07:16:47 AM 30.5472 -88.8567 27° Northeast 283 326 10,000  Level Houston Center
Wed 07:17:00 AM 30.9145 -88.7897 69° East  Level FlightAware Approximate
Wed 07:17:48 AM 30.6181 -88.8097 30° Northeast 291 335 10,500  Level Houston Center
Wed 07:18:00 AM 30.9790 -88.6772 58° Northeast  Level FlightAware Approximate
Wed 07:18:49 AM 30.6953 -88.7558 31° Northeast 319 367 12,100  Level Houston Center
Wed 07:19:50 AM 30.7808 -88.6992 30° Northeast 347 399 15,200 2,926 Climbing Houston Center
Wed 07:20:50 AM 30.8675 -88.6392 31° Northeast 359 413 18,000 2,926 Climbing Houston Center
Wed 07:21:51 AM 30.9681 -88.5514 37° Northeast 380 437 21,100 2,361 Climbing Houston Center
Wed 07:22:52 AM 31.0419 -88.4531 49° Northeast 398 458 22,800 1,279 Climbing Houston Center
Wed 07:23:53 AM 31.1078 -88.3700 47° Northeast 419 482 23,700 1,033 Climbing Houston Center
Wed 07:24:54 AM 31.1983 -88.2511 48° Northeast 465 535 24,900 1,421 Climbing Houston Center
Wed 07:25:09 AM 31.2361 -88.2036 47° Northeast 467 537 25,500 2,480 Climbing Atlanta Center
Wed 07:26:09 AM 31.3214 -88.0858 50° Northeast 472 543 28,000 2,200 Climbing Atlanta Center
Wed 07:27:09 AM 31.4067 -87.9706 49° Northeast 467 537 29,900 1,800 Climbing Atlanta Center
Wed 07:28:09 AM 31.4894 -87.8547 50° Northeast 467 537 31,600 1,550 Climbing Atlanta Center
Wed 07:29:09 AM 31.5642 -87.7311 55° Northeast 462 532 33,000 700 Climbing Atlanta Center
Wed 07:30:09 AM 31.6386 -87.6097 54° Northeast 462 532 33,000 -150 Level Atlanta Center
Wed 07:31:09 AM 31.7111 -87.4881 55° Northeast 456 525 32,700 -500 Descending Atlanta Center
Wed 07:32:09 AM 31.7875 -87.3664 54° Northeast 456 525 32,000 -650 Descending Atlanta Center
Wed 07:33:09 AM 31.8531 -87.2467 57° Northeast 470 541 31,400 -650 Descending Atlanta Center
Wed 07:34:09 AM 31.9272 -87.1244 54° Northeast 470 541 30,700 -700 Descending Atlanta Center
Wed 07:35:09 AM 32.0011 -87.0047 54° Northeast 460 529 30,000 -700 Descending Atlanta Center
Wed 07:36:09 AM 32.0728 -86.8869 54° Northeast 448 516 29,300 -500 Descending Atlanta Center
Wed 07:37:09 AM 32.1444 -86.7617 56° Northeast 448 516 29,000 -150 Descending Atlanta Center
Wed 07:38:09 AM 32.2308 -86.6267 53° Northeast 453 521 29,000  Level Atlanta Center
Wed 07:39:09 AM 32.3064 -86.5061 53° Northeast 458 527 29,000 -150 Level Atlanta Center
Wed 07:40:09 AM 32.3714 -86.3850 58° Northeast 470 541 28,700 -600 Descending Atlanta Center
Wed 07:41:09 AM 32.4406 -86.2589 57° Northeast 470 541 27,800 -950 Descending Atlanta Center
Wed 07:42:09 AM 32.5264 -86.1181 54° Northeast 465 535 26,800 -950 Descending Atlanta Center
Wed 07:43:09 AM 32.5975 -85.9917 56° Northeast 471 542 25,900 -900 Descending Atlanta Center
Wed 07:44:09 AM 32.6681 -85.8672 56° Northeast 471 542 25,000 -900 Descending Atlanta Center
Wed 07:45:09 AM 32.7408 -85.7403 56° Northeast 466 536 24,100 -1,150 Descending Atlanta Center
Wed 07:46:09 AM 32.8114 -85.6206 55° Northeast 455 524 22,700 -1,500 Descending Atlanta Center
Wed 07:47:09 AM 32.8797 -85.4981 56° Northeast 450 518 21,100 -1,650 Descending Atlanta Center
Wed 07:48:09 AM 32.9478 -85.3831 55° Northeast 432 497 19,400 -1,700 Descending Atlanta Center
Wed 07:49:09 AM 33.0117 -85.2725 55° Northeast 425 489 17,700 -1,700 Descending Atlanta Center
Wed 07:50:09 AM 33.0731 -85.1792 52° Northeast 406 467 16,000 -1,700 Descending Atlanta Center
Wed 07:51:09 AM 33.1533 -85.0736 48° Northeast 390 449 14,300 -1,100 Descending Atlanta Center
Wed 07:52:09 AM 33.2231 -84.9775 49° Northeast 383 441 13,800 -750 Descending Atlanta Center
Wed 07:53:09 AM 33.2944 -84.8864 47° Northeast 378 435 12,800 -900 Descending Atlanta Center
Wed 07:54:09 AM 33.3661 -84.7975 46° Northeast 383 441 12,000 -744 Descending Atlanta Center
Wed 07:55:10 AM 33.4333 -84.7000 50° Northeast 357 411 11,300 -517 Descending Atlanta TRACON
Wed 07:56:05 AM 33.4833 -84.6167 54° Northeast 303 349 11,000 -150 Descending Atlanta TRACON
Wed 07:57:10 AM 33.5333 -84.5500 48° Northeast 247 284 11,000 -381 Level Atlanta TRACON
Wed 07:58:11 AM 33.5500 -84.4667 76° East 262 302 10,200 -1,148 Descending Atlanta TRACON
Wed 07:59:05 AM 33.5500 -84.4000 90° East 243 280 8,800 -2,000 Descending Atlanta TRACON
Wed 08:00:11 AM 33.5500 -84.3000 90° East 239 275 6,200 -2,190 Descending Atlanta TRACON
Wed 08:01:11 AM 33.5667 -84.2333 73° East 238 274 4,200 -1,600 Descending Atlanta TRACON
Wed 08:02:11 AM 33.6000 -84.2667 320° Northwest 184 212 3,000 -1,200 Descending Atlanta TRACON

Login

Don't have an account? Register now (free) for customized features, flight alerts, and more!